createdAt,value
2023-04-10T00:02:11.906Z,9.80
2023-04-10T00:07:17.021Z,9.80
2023-04-10T00:12:20.627Z,9.80
2023-04-10T00:17:24.025Z,9.80
2023-04-10T00:22:29.082Z,9.80
2023-04-10T00:27:32.450Z,9.80
2023-04-10T00:32:35.889Z,9.70
2023-04-10T00:37:40.975Z,9.70
2023-04-10T00:42:44.844Z,9.70
2023-04-10T00:47:48.340Z,9.70
2023-04-10T00:52:53.228Z,9.80
2023-04-10T00:57:58.153Z,9.70
2023-04-10T01:03:02.253Z,9.70
2023-04-10T01:08:13.608Z,9.50
2023-04-10T01:13:24.396Z,9.30
2023-04-10T01:18:34.799Z,9.10
2023-04-10T01:23:58.809Z,9.10
2023-04-10T01:29:05.310Z,9.00
2023-04-10T01:34:11.442Z,9.00
2023-04-10T01:39:15.932Z,9.00
2023-04-10T01:44:26.098Z,9.00
2023-04-10T01:49:31.398Z,8.90
2023-04-10T01:54:35.720Z,8.90
2023-04-10T01:59:40.753Z,9.00
2023-04-10T02:04:46.563Z,9.00
2023-04-10T02:09:59.505Z,9.00
2023-04-10T02:15:06.560Z,8.90
2023-04-10T02:20:11.717Z,9.00
2023-04-10T02:25:15.882Z,8.90
2023-04-10T02:30:20.777Z,8.90
2023-04-10T02:35:24.153Z,8.90
2023-04-10T02:40:27.538Z,8.90
2023-04-10T02:45:33.860Z,8.70
2023-04-10T02:50:37.239Z,8.70
2023-04-10T02:55:41.883Z,8.60
2023-04-10T03:00:50.787Z,8.50
2023-04-10T03:05:54.545Z,8.50
2023-04-10T03:10:57.981Z,8.50
2023-04-10T03:16:02.719Z,8.50
2023-04-10T03:21:06.696Z,8.40
2023-04-10T03:26:10.175Z,8.30
2023-04-10T03:31:14.937Z,8.10
2023-04-10T03:36:18.692Z,8.00
2023-04-10T03:41:25.454Z,7.80
2023-04-10T03:46:31.435Z,7.70
2023-04-10T03:51:34.848Z,7.70
2023-04-10T03:56:38.209Z,7.80
2023-04-10T04:01:43.318Z,7.90
2023-04-10T04:06:47.081Z,8.00
2023-04-10T04:11:50.428Z,8.10
2023-04-10T04:16:55.340Z,8.10
2023-04-10T04:22:00.390Z,8.20
2023-04-10T04:27:03.819Z,8.20
2023-04-10T04:32:09.055Z,8.30
2023-04-10T04:37:12.468Z,8.30
2023-04-10T04:42:15.923Z,8.40
2023-04-10T04:47:20.644Z,8.40
2023-04-10T04:52:24.212Z,8.20
2023-04-10T04:57:27.607Z,8.20
2023-04-10T05:02:32.478Z,8.20
2023-04-10T05:07:36.014Z,8.30
2023-04-10T05:12:41.915Z,8.40
2023-04-10T05:17:46.763Z,8.40
2023-04-10T05:22:50.322Z,8.50
2023-04-10T05:27:53.723Z,8.60
2023-04-10T05:32:58.561Z,8.60
2023-04-10T05:38:02.244Z,8.70
2023-04-10T05:43:05.888Z,8.80
2023-04-10T05:48:11.244Z,8.90
2023-04-10T05:53:15.904Z,9.00
2023-04-10T05:58:19.244Z,9.10
2023-04-10T06:03:24.129Z,9.10
2023-04-10T06:08:27.732Z,9.10
2023-04-10T06:13:32.424Z,9.10
2023-04-10T06:18:38.567Z,9.20
2023-04-10T06:23:42.152Z,9.10
2023-04-10T06:28:45.883Z,9.10
2023-04-10T06:33:51.228Z,9.20
2023-04-10T06:38:54.933Z,9.20
2023-04-10T06:43:59.669Z,9.20
2023-04-10T06:49:06.339Z,9.30
2023-04-10T06:54:09.690Z,9.40
2023-04-10T06:59:13.314Z,9.50
2023-04-10T07:04:18.053Z,9.60
2023-04-10T07:09:21.402Z,9.70
2023-04-10T07:14:24.832Z,9.70
2023-04-10T07:19:29.777Z,9.80
2023-04-10T07:24:33.432Z,9.80
2023-04-10T07:29:36.834Z,10.00
2023-04-10T07:34:42.796Z,10.10
2023-04-10T07:39:46.247Z,10.20
2023-04-10T07:44:49.659Z,10.30
2023-04-10T07:49:54.376Z,10.40
2023-04-10T07:54:57.778Z,10.50
2023-04-10T08:00:01.276Z,10.60
2023-04-10T08:05:06.789Z,10.70
2023-04-10T08:10:11.403Z,10.80
2023-04-10T08:15:14.838Z,10.80
2023-04-10T08:20:19.631Z,10.80
2023-04-10T08:25:23.103Z,10.90
2023-04-10T08:30:26.801Z,10.90
2023-04-10T08:35:31.544Z,10.90
2023-04-10T08:40:38.885Z,11.00
2023-04-10T08:45:42.612Z,11.00
2023-04-10T08:50:48.354Z,11.10
2023-04-10T08:55:51.801Z,11.10
2023-04-10T09:00:55.801Z,11.20
2023-04-10T09:06:05.083Z,11.20
2023-04-10T09:11:08.509Z,11.30
2023-04-10T09:16:13.044Z,11.40
2023-04-10T09:21:21.219Z,11.50
2023-04-10T09:26:29.102Z,11.60
2023-04-10T09:31:34.860Z,11.70
2023-04-10T09:36:41.422Z,11.80
2023-04-10T09:41:53.300Z,11.90
2023-04-10T09:46:57.244Z,12.00
2023-04-10T09:52:18.246Z,12.20
2023-04-10T09:57:23.526Z,12.20
2023-04-10T10:02:31.370Z,12.30
2023-04-10T10:07:37.772Z,12.40
2023-04-10T10:12:50.597Z,12.50
2023-04-10T10:18:01.476Z,12.60
2023-04-10T10:23:08.601Z,12.60
2023-04-10T10:28:14.281Z,12.70
2023-04-10T10:33:18.641Z,12.90
2023-04-10T10:38:23.977Z,13.10
2023-04-10T10:43:36.899Z,13.30
2023-04-10T10:48:40.260Z,13.40
2023-04-10T10:53:45.993Z,13.60
2023-04-10T10:58:50.490Z,13.70
2023-04-10T11:03:54.259Z,13.80
2023-04-10T11:08:59.147Z,13.90
2023-04-10T11:14:18.129Z,14.10
2023-04-10T11:19:25.204Z,14.20
2023-04-10T11:24:31.069Z,14.30
2023-04-10T11:29:34.922Z,14.40
2023-04-10T11:34:45.215Z,14.50
2023-04-10T11:39:50.321Z,14.70
2023-04-10T11:44:53.714Z,14.80
2023-04-10T11:49:58.675Z,14.90
2023-04-10T11:55:04.018Z,15.00
2023-04-10T12:00:08.982Z,15.20
2023-04-10T12:05:12.732Z,15.30
2023-04-10T12:10:17.998Z,15.40
2023-04-10T12:15:28.663Z,15.50
2023-04-10T12:20:32.242Z,15.60
2023-04-10T12:25:37.253Z,15.70
2023-04-10T12:30:52.877Z,15.90
2023-04-10T12:35:56.909Z,16.00
2023-04-10T12:41:02.164Z,16.20
2023-04-10T12:46:07.138Z,16.30
2023-04-10T12:51:10.573Z,16.50
2023-04-10T12:56:18.338Z,16.60
2023-04-10T13:01:21.977Z,16.70
2023-04-10T13:06:25.601Z,16.80
2023-04-10T13:11:30.564Z,16.80
2023-04-10T13:16:34.071Z,16.90
2023-04-10T13:21:37.471Z,17.10
2023-04-10T13:26:42.196Z,17.20
2023-04-10T13:31:45.648Z,17.40
2023-04-10T13:36:50.146Z,17.60
2023-04-10T13:41:55.046Z,17.80
2023-04-10T13:46:59.377Z,17.90
2023-04-10T13:52:02.821Z,18.00
2023-04-10T13:57:08.033Z,18.20
2023-04-10T14:02:11.899Z,18.40
2023-04-10T14:07:15.402Z,18.60
2023-04-10T14:12:21.025Z,18.80
2023-04-10T14:17:25.051Z,19.20
2023-04-10T14:22:30.304Z,19.50
2023-04-10T14:27:35.136Z,19.80
2023-04-10T14:32:40.589Z,20.10
2023-04-10T14:37:44.237Z,20.40
2023-04-10T14:42:49.059Z,20.80
2023-04-10T14:47:52.575Z,21.30
2023-04-10T14:52:55.971Z,22.00
2023-04-10T14:58:01.435Z,22.70
2023-04-10T15:03:06.542Z,24.40
2023-04-10T15:08:10.099Z,26.20
2023-04-10T15:13:14.789Z,27.20
2023-04-10T15:18:18.251Z,28.00
2023-04-10T15:23:21.682Z,28.60
2023-04-10T15:28:28.170Z,29.00
2023-04-10T15:33:31.618Z,29.30
2023-04-10T15:38:36.397Z,29.60
2023-04-10T15:43:42.490Z,29.90
2023-04-10T15:48:45.963Z,29.40
2023-04-10T15:53:49.360Z,28.60
2023-04-10T15:58:54.692Z,28.60
2023-04-10T16:03:58.486Z,27.70
2023-04-10T16:09:03.536Z,26.60
2023-04-10T16:14:10.975Z,26.60
2023-04-10T16:19:14.554Z,26.90
2023-04-10T16:24:18.367Z,27.00
2023-04-10T16:29:23.142Z,26.50
2023-04-10T16:34:26.596Z,25.80
2023-04-10T16:39:30.030Z,25.60
2023-04-10T16:44:35.138Z,25.50
2023-04-10T16:49:40.311Z,25.20
2023-04-10T16:54:43.756Z,24.60
2023-04-10T16:59:48.794Z,23.90
2023-04-10T17:04:52.213Z,23.10
2023-04-10T17:09:55.631Z,22.50
2023-04-10T17:15:00.612Z,22.00
2023-04-10T17:20:04.095Z,21.50
2023-04-10T17:25:08.632Z,21.10
2023-04-10T17:30:14.847Z,20.60
2023-04-10T17:35:20.311Z,20.20
2023-04-10T17:40:25.017Z,19.80
2023-04-10T17:45:29.786Z,19.40
2023-04-10T17:50:33.321Z,19.10
2023-04-10T17:55:40.208Z,18.80
2023-04-10T18:00:45.328Z,18.50
2023-04-10T18:05:48.697Z,18.20
2023-04-10T18:10:52.149Z,18.00
2023-04-10T18:15:56.912Z,17.80
2023-04-10T18:21:03.675Z,17.50
2023-04-10T18:26:07.428Z,17.40
2023-04-10T18:31:14.683Z,17.30
2023-04-10T18:36:20.911Z,17.10
2023-04-10T18:41:24.601Z,16.90
2023-04-10T18:46:30.220Z,16.70
2023-04-10T18:51:35.554Z,16.60
2023-04-10T18:56:39.672Z,16.50
2023-04-10T19:01:44.747Z,16.30
2023-04-10T19:06:48.254Z,16.20
2023-04-10T19:11:53.793Z,16.10
2023-04-10T19:16:58.750Z,16.00
2023-04-10T19:22:02.265Z,15.90
2023-04-10T19:27:06.442Z,15.80
2023-04-10T19:32:11.407Z,15.60
2023-04-10T19:37:14.786Z,15.50
2023-04-10T19:42:18.204Z,15.40
2023-04-10T19:47:23.275Z,15.20
2023-04-10T19:52:27.454Z,15.20
2023-04-10T19:57:30.874Z,15.10
2023-04-10T20:02:36.098Z,15.00
2023-04-10T20:07:39.614Z,14.90
2023-04-10T20:12:43.059Z,14.80
2023-04-10T20:17:47.893Z,14.80
2023-04-10T20:22:51.487Z,14.70
2023-04-10T20:27:55.155Z,14.60
2023-04-10T20:33:00.021Z,14.60
2023-04-10T20:38:03.670Z,14.50
2023-04-10T20:43:11.061Z,14.40
2023-04-10T20:48:15.936Z,14.30
2023-04-10T20:53:19.307Z,14.20
2023-04-10T20:58:23.122Z,14.20
2023-04-10T21:03:28.193Z,14.10
2023-04-10T21:08:31.807Z,14.00
2023-04-10T21:13:37.008Z,13.90
2023-04-10T21:18:43.124Z,13.90
2023-04-10T21:23:46.582Z,13.80
2023-04-10T21:28:50.002Z,13.70
2023-04-10T21:33:55.032Z,13.60
2023-04-10T21:38:58.662Z,13.60
2023-04-10T21:44:02.050Z,13.50
2023-04-10T21:49:06.835Z,13.50
2023-04-10T21:54:10.271Z,13.40
2023-04-10T21:59:13.638Z,13.30
2023-04-10T22:04:18.547Z,13.30
2023-04-10T22:09:22.764Z,13.30
2023-04-10T22:14:26.641Z,13.30
2023-04-10T22:19:31.430Z,13.20
2023-04-10T22:24:35.387Z,13.10
2023-04-10T22:29:39.065Z,13.00
2023-04-10T22:34:44.448Z,13.00
2023-04-10T22:39:48.038Z,13.00
2023-04-10T22:44:53.976Z,12.90
2023-04-10T22:49:58.781Z,12.90
2023-04-10T22:55:02.178Z,12.80
2023-04-10T23:00:07.146Z,12.70
2023-04-10T23:05:12.097Z,12.70
2023-04-10T23:10:15.806Z,12.70
2023-04-10T23:15:19.250Z,12.60
2023-04-10T23:20:24.101Z,12.60
2023-04-10T23:25:27.451Z,12.50
2023-04-10T23:30:30.904Z,12.50
2023-04-10T23:35:35.657Z,12.40
2023-04-10T23:40:39.070Z,12.40
2023-04-10T23:45:42.487Z,12.30
2023-04-10T23:50:47.498Z,12.30
2023-04-10T23:55:51.939Z,12.20
